Time;durP1;ratioP1;P1;durP2;ratioP2;P2;SDS_P1;SDS_P2;PMS_P1;PMS_P2;Temp;Humidity;BMP_temperature;BMP_pressure;BME280_temperature;BME280_humidity;BME280_pressure;Samples;Min_cycle;Max_cycle;Signal;HPM_P1;HPM_P2
2021/05/14 00:01:07;;;;;;;23.83;22.63;;;11.70;75.70;;;;;;5005009;28;20488;-81
2021/05/14 00:03:33;;;;;;;22.70;21.60;;;11.70;75.30;;;;;;5004846;28;20465;-78
2021/05/14 00:06:00;;;;;;;23.40;22.20;;;11.80;75.30;;;;;;5009096;28;20468;-75
2021/05/14 00:08:26;;;;;;;103.60;31.47;;;11.80;74.90;;;;;;5029093;28;20464;-75
2021/05/14 00:10:53;;;;;;;23.23;22.03;;;11.70;75.10;;;;;;5012069;28;20858;-76
2021/05/14 00:13:19;;;;;;;22.40;21.30;;;11.60;75.50;;;;;;5008365;28;20470;-76
2021/05/14 00:15:45;;;;;;;22.80;21.60;;;11.60;75.90;;;;;;5006433;28;20460;-75
2021/05/14 00:18:13;;;;;;;22.23;21.13;;;11.60;76.20;;;;;;5004570;28;21239;-75
2021/05/14 00:20:41;;;;;;;22.70;21.53;;;11.60;76.10;;;;;;5010584;28;20511;-74
2021/05/14 00:23:08;;;;;;;23.03;21.73;;;11.50;76.00;;;;;;5005038;28;20917;-75
2021/05/14 00:25:35;;;;;;;22.77;21.67;;;11.60;75.90;;;;;;5007834;28;20460;-75
2021/05/14 00:28:01;;;;;;;22.70;21.60;;;11.60;75.60;;;;;;5008187;28;20471;-76
2021/05/14 00:30:28;;;;;;;23.00;21.90;;;11.60;75.80;;;;;;5006562;28;20539;-75
2021/05/14 00:32:54;;;;;;;23.00;21.90;;;11.60;76.10;;;;;;5005937;28;20475;-76
2021/05/14 00:35:21;;;;;;;23.17;21.97;;;11.50;76.10;;;;;;5007958;28;20453;-75
2021/05/14 00:37:48;;;;;;;22.50;21.30;;;11.60;76.00;;;;;;5010084;28;20461;-75
2021/05/14 00:40:15;;;;;;;22.90;21.50;;;11.50;76.00;;;;;;5011235;28;20468;-75
2021/05/14 00:42:42;;;;;;;23.00;21.90;;;11.60;76.00;;;;;;5009602;28;20488;-76
2021/05/14 00:45:09;;;;;;;22.67;21.57;;;11.80;75.10;;;;;;5005939;28;20460;-76
2021/05/14 00:47:36;;;;;;;22.70;21.60;;;11.80;75.10;;;;;;5004463;28;20804;-75
2021/05/14 00:50:04;;;;;;;22.87;21.67;;;11.70;75.20;;;;;;5008695;28;20469;-75
2021/05/14 00:52:31;;;;;;;23.10;21.90;;;11.70;75.00;;;;;;5006811;28;20556;-75
2021/05/14 00:54:58;;;;;;;22.98;21.80;;;11.70;75.10;;;;;;5002636;28;20507;-75
2021/05/14 00:57:25;;;;;;;23.03;21.83;;;11.70;75.30;;;;;;5006634;28;20220;-75
2021/05/14 00:59:52;;;;;;;22.90;21.80;;;11.60;75.40;;;;;;5005582;28;20480;-76
2021/05/14 01:02:19;;;;;;;22.77;21.67;;;11.60;75.50;;;;;;5006969;28;20541;-82
2021/05/14 01:04:45;;;;;;;24.37;23.10;;;11.60;75.30;;;;;;5004014;28;20954;-81
2021/05/14 01:07:13;;;;;;;23.33;21.80;;;11.60;75.70;;;;;;5007986;28;20497;-77
2021/05/14 01:09:41;;;;;;;23.03;21.83;;;11.60;75.70;;;;;;5008884;28;20480;-79
2021/05/14 01:12:10;;;;;;;22.47;21.37;;;11.60;75.30;;;;;;5019506;28;20479;-81
2021/05/14 01:14:37;;;;;;;23.50;22.30;;;11.60;75.30;;;;;;5008177;28;20935;-79
2021/05/14 01:17:03;;;;;;;23.10;22.00;;;11.60;75.10;;;;;;5011021;28;20551;-77
2021/05/14 01:19:29;;;;;;;23.43;21.97;;;11.40;75.50;;;;;;5012178;28;20890;-81
2021/05/14 01:21:57;;;;;;;22.60;21.50;;;11.40;75.90;;;;;;5011143;28;20576;-89
2021/05/14 01:24:24;;;;;;;23.77;22.47;;;11.30;76.00;;;;;;5011322;28;20815;-78
2021/05/14 01:26:50;;;;;;;23.07;21.97;;;11.30;76.30;;;;;;5010438;28;21089;-77
2021/05/14 01:29:17;;;;;;;23.53;22.10;;;11.30;76.10;;;;;;5026511;28;20533;-79
2021/05/14 01:31:44;;;;;;;23.50;22.30;;;11.40;75.90;;;;;;5002580;28;20478;-76
2021/05/14 01:34:10;;;;;;;22.80;21.70;;;11.40;76.10;;;;;;4994932;28;20449;-79
2021/05/14 01:36:39;;;;;;;23.17;21.97;;;11.40;75.90;;;;;;5010139;28;20548;-78
2021/05/14 01:39:08;;;;;;;23.70;22.40;;;11.40;76.00;;;;;;5006458;28;20527;-81
2021/05/14 01:41:35;;;;;;;23.60;22.40;;;11.30;76.20;;;;;;5005541;28;20483;-78
2021/05/14 01:44:01;;;;;;;23.30;22.20;;;11.30;76.20;;;;;;5012028;28;20542;-77
2021/05/14 01:46:28;;;;;;;23.47;22.17;;;11.20;76.40;;;;;;5005600;28;20457;-76
2021/05/14 01:48:54;;;;;;;23.00;21.80;;;11.20;76.80;;;;;;5007711;28;20503;-76
2021/05/14 01:51:22;;;;;;;23.40;22.30;;;11.10;77.40;;;;;;5020248;28;20568;-75
2021/05/14 01:53:50;;;;;;;22.83;21.70;;;11.10;77.40;;;;;;5006658;28;20544;-76
2021/05/14 01:56:18;;;;;;;23.03;21.90;;;11.10;77.50;;;;;;5004902;28;20460;-79
2021/05/14 01:58:46;;;;;;;22.30;21.20;;;11.10;77.00;;;;;;4996127;28;21135;-81
2021/05/14 02:01:13;;;;;;;22.67;21.47;;;11.00;77.20;;;;;;5009414;28;20488;-78
2021/05/14 02:03:40;;;;;;;23.80;22.50;;;11.00;77.40;;;;;;5011492;28;20461;-79
2021/05/14 02:06:07;;;;;;;23.50;22.40;;;11.00;77.70;;;;;;5005217;28;20467;-75
2021/05/14 02:08:33;;;;;;;24.07;22.50;;;11.00;77.60;;;;;;5006656;28;20464;-76
2021/05/14 02:11:02;;;;;;;23.00;21.90;;;10.90;78.20;;;;;;5010672;28;20488;-75
2021/05/14 02:13:29;;;;;;;23.10;22.00;;;10.80;78.60;;;;;;5007846;28;20469;-76
2021/05/14 02:15:56;;;;;;;23.55;22.25;;;10.80;78.80;;;;;;5007774;28;20461;-76
2021/05/14 02:18:23;;;;;;;22.50;21.40;;;10.80;78.80;;;;;;5009527;28;20934;-78
2021/05/14 02:20:52;;;;;;;22.35;21.25;;;10.80;79.30;;;;;;5021507;28;20456;-76
2021/05/14 02:23:18;;;;;;;22.98;21.88;;;10.70;80.60;;;;;;5006964;28;20264;-80
2021/05/14 02:25:45;;;;;;;22.70;21.50;;;10.60;80.00;;;;;;5002066;28;20687;-77
2021/05/14 02:28:11;;;;;;;23.27;21.97;;;10.60;80.20;;;;;;5006136;28;20286;-77
2021/05/14 02:30:39;;;;;;;22.67;21.43;;;10.50;80.10;;;;;;5002961;28;20457;-81
2021/05/14 02:33:07;;;;;;;23.00;21.90;;;10.50;80.30;;;;;;5016526;28;21033;-81
2021/05/14 02:35:33;;;;;;;24.85;23.02;;;10.50;81.20;;;;;;5008202;28;20197;-76
2021/05/14 02:38:00;;;;;;;24.60;22.63;;;10.60;80.30;;;;;;4998552;28;20294;-75
2021/05/14 02:40:27;;;;;;;22.93;21.80;;;10.60;79.90;;;;;;4998901;28;20473;-74
2021/05/14 02:42:54;;;;;;;22.03;21.03;;;10.70;79.40;;;;;;5006126;28;20507;-75
2021/05/14 02:45:20;;;;;;;23.50;22.08;;;10.60;79.60;;;;;;5006948;28;20891;-75
2021/05/14 02:47:48;;;;;;;22.10;21.00;;;10.60;79.80;;;;;;5009670;28;20267;-75
2021/05/14 02:50:14;;;;;;;22.52;21.40;;;10.70;79.80;;;;;;5012981;28;20474;-76
2021/05/14 02:52:41;;;;;;;23.85;22.45;;;10.80;78.80;;;;;;5010779;28;20216;-75
2021/05/14 02:55:09;;;;;;;26.65;25.23;;;10.80;78.60;;;;;;5007123;28;20212;-75
2021/05/14 02:57:35;;;;;;;23.23;22.08;;;10.80;78.50;;;;;;5009797;28;20293;-75
2021/05/14 03:00:03;;;;;;;22.33;21.23;;;10.80;78.70;;;;;;5008096;28;20331;-75
2021/05/14 03:02:30;;;;;;;22.60;21.50;;;10.70;79.30;;;;;;5008358;28;20221;-75
2021/05/14 03:04:57;;;;;;;29.90;23.08;;;10.60;79.20;;;;;;5009633;28;20198;-75
2021/05/14 03:07:24;;;;;;;103.65;32.88;;;10.60;79.10;;;;;;5006875;28;20217;-75
2021/05/14 03:09:50;;;;;;;29.02;26.33;;;10.60;79.30;;;;;;5005522;28;20297;-75
2021/05/14 03:12:16;;;;;;;26.43;23.87;;;10.60;79.10;;;;;;5007581;28;20329;-75
2021/05/14 03:14:43;;;;;;;23.43;22.23;;;10.60;79.30;;;;;;5008802;28;20486;-74
2021/05/14 03:17:09;;;;;;;22.17;21.00;;;10.60;79.90;;;;;;5006322;28;20463;-74
2021/05/14 03:19:35;;;;;;;22.00;20.80;;;10.60;80.40;;;;;;5009973;28;20468;-75
2021/05/14 03:22:03;;;;;;;22.80;21.60;;;10.60;79.90;;;;;;5013587;28;20488;-75
2021/05/14 03:24:29;;;;;;;22.45;21.25;;;10.60;79.80;;;;;;5005344;28;20201;-75
2021/05/14 03:26:55;;;;;;;29.27;27.88;;;10.60;79.70;;;;;;5013000;28;20711;-75
2021/05/14 03:29:22;;;;;;;24.50;22.73;;;10.50;80.00;;;;;;5008687;28;20287;-75
2021/05/14 03:31:48;;;;;;;23.15;21.65;;;10.40;80.60;;;;;;5018340;28;20335;-74
2021/05/14 03:34:15;;;;;;;23.70;22.45;;;10.40;80.70;;;;;;5013256;28;20260;-74
2021/05/14 03:36:41;;;;;;;22.20;21.08;;;10.30;80.50;;;;;;5005128;28;20202;-74
2021/05/14 03:39:09;;;;;;;23.38;22.27;;;10.20;80.80;;;;;;5003386;28;20202;-75
2021/05/14 03:41:46;;;;;;;24.25;22.75;;;10.10;81.40;;;;;;5002473;28;20232;-75
2021/05/14 03:44:13;;;;;;;24.70;23.40;;;10.10;81.30;;;;;;5013151;28;20255;-75
2021/05/14 03:46:39;;;;;;;22.73;21.60;;;10.00;82.20;;;;;;5005597;28;20612;-75
2021/05/14 03:49:06;;;;;;;23.15;21.95;;;9.90;84.40;;;;;;5006864;28;20245;-75
2021/05/14 03:51:35;;;;;;;25.30;23.80;;;9.90;82.90;;;;;;5008767;28;20719;-75
2021/05/14 03:54:03;;;;;;;21.83;20.73;;;9.80;83.00;;;;;;5004112;28;20198;-75
2021/05/14 03:56:30;;;;;;;25.73;24.05;;;9.70;83.10;;;;;;5005272;28;20198;-75
2021/05/14 03:58:57;;;;;;;24.00;22.70;;;9.70;83.40;;;;;;5010146;28;20198;-85
2021/05/14 04:01:24;;;;;;;23.42;22.15;;;9.90;82.40;;;;;;5008232;28;20463;-76
2021/05/14 04:03:50;;;;;;;24.33;23.02;;;9.90;82.20;;;;;;5008518;28;20741;-75
2021/05/14 04:06:17;;;;;;;24.58;23.20;;;9.90;81.80;;;;;;5008346;28;20202;-75
2021/05/14 04:08:43;;;;;;;23.52;22.23;;;9.80;81.60;;;;;;5003059;28;20201;-75
2021/05/14 04:16:51;;;;;;;21.92;20.83;;;9.60;87.40;;;;;;4997932;28;20205;-76
2021/05/14 04:19:18;;;;;;;22.42;21.20;;;9.60;84.50;;;;;;5007610;28;20212;-77
2021/05/14 04:21:44;;;;;;;23.13;21.92;;;9.70;83.50;;;;;;5009543;28;20752;-77
2021/05/14 04:24:10;;;;;;;22.90;21.60;;;9.60;83.00;;;;;;5004544;28;20221;-77
2021/05/14 04:26:37;;;;;;;23.00;21.63;;;9.60;82.90;;;;;;5011087;28;20709;-76
2021/05/14 04:29:04;;;;;;;23.50;22.30;;;9.50;84.20;;;;;;5008115;28;20198;-76
2021/05/14 04:31:31;;;;;;;22.05;20.85;;;9.50;85.80;;;;;;5011514;28;20304;-83
2021/05/14 04:33:58;;;;;;;24.85;23.55;;;9.50;84.30;;;;;;5011458;28;20691;-80
2021/05/14 04:36:24;;;;;;;23.52;21.95;;;9.60;83.50;;;;;;5007821;28;20260;-77
2021/05/14 04:38:51;;;;;;;26.42;24.55;;;9.80;83.30;;;;;;5003908;28;20321;-76
2021/05/14 04:41:17;;;;;;;24.77;23.48;;;9.90;82.30;;;;;;5002407;28;21060;-80
2021/05/14 04:43:44;;;;;;;24.33;22.45;;;10.00;83.00;;;;;;5009638;28;20208;-77
2021/05/14 04:46:10;;;;;;;28.38;26.92;;;9.90;85.70;;;;;;5004639;28;20206;-77
2021/05/14 04:48:37;;;;;;;24.73;23.33;;;9.90;83.00;;;;;;5010444;28;20240;-78
2021/05/14 04:51:04;;;;;;;25.42;23.85;;;10.00;82.30;;;;;;5010823;28;20313;-78
2021/05/14 04:53:31;;;;;;;24.13;22.20;;;10.10;82.00;;;;;;5008761;28;20277;-81
2021/05/14 04:55:58;;;;;;;23.50;22.10;;;10.20;81.50;;;;;;5008573;28;20245;-76
2021/05/14 04:58:24;;;;;;;30.42;28.70;;;10.30;81.40;;;;;;5007588;28;20664;-75
2021/05/14 05:00:51;;;;;;;24.92;23.42;;;10.30;81.00;;;;;;5008572;28;20220;-77
2021/05/14 05:03:18;;;;;;;25.60;24.17;;;10.30;80.60;;;;;;5008638;28;20229;-77
2021/05/14 05:05:46;;;;;;;23.48;22.17;;;10.40;80.40;;;;;;5007028;28;20904;-76
2021/05/14 05:08:12;;;;;;;23.63;22.42;;;10.50;79.90;;;;;;5007660;28;20293;-73
2021/05/14 05:10:39;;;;;;;26.77;25.15;;;10.60;79.60;;;;;;5009534;28;20578;-72
2021/05/14 05:13:05;;;;;;;25.85;24.33;;;10.70;79.40;;;;;;5008265;28;20567;-72
2021/05/14 05:15:32;;;;;;;23.87;22.47;;;10.70;79.40;;;;;;5007899;28;20198;-73
2021/05/14 05:17:58;;;;;;;51.00;31.05;;;10.70;79.10;;;;;;5008213;28;20502;-72
2021/05/14 05:20:24;;;;;;;22.83;21.65;;;10.80;79.10;;;;;;5008809;28;20751;-72
2021/05/14 05:22:52;;;;;;;25.80;24.10;;;10.90;78.60;;;;;;5009436;28;20885;-72
2021/05/14 05:25:18;;;;;;;27.88;26.38;;;11.00;78.30;;;;;;5010266;28;20598;-76
2021/05/14 05:27:45;;;;;;;23.80;22.60;;;11.10;78.20;;;;;;5006226;28;20233;-80
2021/05/14 05:30:12;;;;;;;24.83;23.50;;;11.10;78.10;;;;;;5007171;28;20535;-75
2021/05/14 05:32:39;;;;;;;29.45;27.85;;;11.10;78.30;;;;;;5006701;28;20935;-77
2021/05/14 05:35:06;;;;;;;26.87;25.07;;;11.30;77.70;;;;;;5010194;28;20207;-78
2021/05/14 05:37:33;;;;;;;26.30;24.45;;;11.30;77.60;;;;;;5019410;28;20543;-82
2021/05/14 05:40:00;;;;;;;25.35;23.85;;;11.40;77.40;;;;;;5013964;28;20277;-79
2021/05/14 05:42:26;;;;;;;24.63;23.33;;;11.50;77.00;;;;;;5018040;28;20308;-78
2021/05/14 05:44:55;;;;;;;25.53;24.23;;;11.60;77.50;;;;;;5009205;28;20886;-79
2021/05/14 05:47:22;;;;;;;27.80;26.30;;;11.80;76.80;;;;;;5017784;28;20567;-78
2021/05/14 05:49:48;;;;;;;24.97;23.60;;;11.90;76.40;;;;;;5006670;28;20878;-76
2021/05/14 05:52:15;;;;;;;25.30;23.83;;;12.10;75.50;;;;;;5007702;28;21059;-77
2021/05/14 05:54:41;;;;;;;24.97;23.77;;;12.20;74.90;;;;;;5008336;28;20465;-77
2021/05/14 05:57:08;;;;;;;25.20;23.90;;;12.10;75.60;;;;;;5008869;28;20954;-76
2021/05/14 05:59:37;;;;;;;25.47;24.17;;;12.30;75.40;;;;;;5008822;28;20448;-80
2021/05/14 06:02:04;;;;;;;24.30;23.00;;;12.40;74.60;;;;;;5006968;28;20575;-76
2021/05/14 06:04:30;;;;;;;24.80;23.50;;;12.50;74.40;;;;;;5009759;28;20489;-77
2021/05/14 06:06:57;;;;;;;29.83;27.53;;;12.60;73.80;;;;;;5007846;28;20468;-77
2021/05/14 06:09:23;;;;;;;25.30;23.90;;;12.70;73.60;;;;;;5007377;28;20515;-76
2021/05/14 06:11:49;;;;;;;26.40;24.33;;;12.90;73.20;;;;;;5022755;28;20853;-76
2021/05/14 06:14:17;;;;;;;25.50;23.83;;;13.00;72.70;;;;;;5020967;28;20456;-77
2021/05/14 06:16:43;;;;;;;24.93;23.53;;;13.20;72.40;;;;;;5002747;28;20469;-76
2021/05/14 06:19:13;;;;;;;27.07;25.57;;;13.20;72.10;;;;;;5007496;28;20476;-76
2021/05/14 06:21:45;;;;;;;26.00;24.60;;;13.30;71.40;;;;;;5011594;28;20966;-77
2021/05/14 06:24:13;;;;;;;24.47;23.13;;;13.30;71.20;;;;;;5007570;28;20455;-77
2021/05/14 06:26:40;;;;;;;24.50;23.20;;;13.40;70.90;;;;;;5010333;28;20560;-77
2021/05/14 06:29:06;;;;;;;26.80;25.37;;;13.50;70.80;;;;;;5013517;28;20459;-76
2021/05/14 06:31:34;;;;;;;26.00;24.60;;;13.60;69.90;;;;;;5009373;28;20484;-75
2021/05/14 06:34:00;;;;;;;24.00;22.80;;;13.80;69.50;;;;;;5010064;28;20468;-76
2021/05/14 06:36:27;;;;;;;29.03;27.27;;;13.80;69.00;;;;;;5009579;28;20471;-75
2021/05/14 06:38:53;;;;;;;25.33;23.73;;;13.90;69.20;;;;;;5011622;28;20955;-76
2021/05/14 06:41:20;;;;;;;25.73;23.73;;;14.10;68.80;;;;;;5010586;28;20538;-75
2021/05/14 06:43:46;;;;;;;30.63;28.13;;;14.10;68.30;;;;;;5012693;28;20480;-75
2021/05/14 06:46:13;;;;;;;24.37;22.97;;;14.30;67.60;;;;;;5010189;28;20456;-76
2021/05/14 06:48:41;;;;;;;70.93;31.60;;;14.40;67.00;;;;;;5010671;28;20469;-79
2021/05/14 06:51:08;;;;;;;23.93;22.70;;;14.50;66.10;;;;;;5007359;28;20467;-76
2021/05/14 06:53:34;;;;;;;24.90;23.60;;;14.50;65.70;;;;;;5028670;28;20448;-76
2021/05/14 06:56:01;;;;;;;24.33;22.93;;;14.30;65.30;;;;;;5028680;28;20548;-75
2021/05/14 06:58:27;;;;;;;26.07;24.00;;;14.10;65.80;;;;;;5031690;28;20463;-75
2021/05/14 07:00:53;;;;;;;28.93;26.90;;;14.10;66.30;;;;;;5029284;28;20573;-78
2021/05/14 07:03:20;;;;;;;26.57;24.50;;;14.10;66.10;;;;;;5026708;28;20491;-77
2021/05/14 07:05:47;;;;;;;25.67;23.97;;;14.20;66.00;;;;;;5030293;28;20464;-77
2021/05/14 07:08:14;;;;;;;28.13;25.30;;;14.30;65.50;;;;;;5015965;28;20547;-76
2021/05/14 07:10:40;;;;;;;26.33;24.53;;;14.30;65.70;;;;;;5018927;28;20468;-76
2021/05/14 07:13:06;;;;;;;28.50;26.70;;;14.50;64.70;;;;;;5015469;28;20452;-76
2021/05/14 07:15:33;;;;;;;25.37;23.63;;;14.70;64.30;;;;;;5036630;28;20459;-76
2021/05/14 07:18:00;;;;;;;27.53;26.13;;;14.80;64.20;;;;;;5036183;28;20460;-76
2021/05/14 07:20:27;;;;;;;25.93;24.57;;;14.80;63.70;;;;;;5028587;28;20988;-76
2021/05/14 07:22:55;;;;;;;23.90;22.70;;;14.90;63.40;;;;;;5030337;28;20846;-79
2021/05/14 07:25:21;;;;;;;28.63;27.10;;;15.00;62.80;;;;;;5041416;28;20469;-76
2021/05/14 07:27:48;;;;;;;24.90;23.50;;;15.10;62.20;;;;;;5035174;28;20946;-76
2021/05/14 07:30:15;;;;;;;23.90;22.60;;;14.90;62.40;;;;;;5029080;28;20466;-76
2021/05/14 07:32:42;;;;;;;25.13;23.83;;;14.60;63.30;;;;;;5028483;28;20848;-76
2021/05/14 07:35:09;;;;;;;28.33;26.93;;;14.80;64.00;;;;;;5025898;28;20468;-76
2021/05/14 07:37:36;;;;;;;24.80;23.20;;;14.80;63.30;;;;;;5029439;28;20486;-76
2021/05/14 07:40:05;;;;;;;25.97;24.43;;;14.80;63.40;;;;;;5030145;28;20502;-76
2021/05/14 07:42:32;;;;;;;24.80;23.50;;;15.00;61.70;;;;;;5030265;28;20483;-76
2021/05/14 07:44:58;;;;;;;26.30;24.27;;;15.10;60.70;;;;;;5029886;28;20553;-76
2021/05/14 07:47:25;;;;;;;472.13;84.93;;;15.30;60.50;;;;;;5029181;28;20447;-76
2021/05/14 07:49:51;;;;;;;26.83;25.43;;;15.60;59.50;;;;;;5028705;28;20823;-76
2021/05/14 07:52:18;;;;;;;29.60;28.30;;;16.00;58.80;;;;;;5038654;28;20468;-76
2021/05/14 07:54:44;;;;;;;25.67;23.87;;;16.20;58.50;;;;;;5028652;28;20467;-76
2021/05/14 07:57:11;;;;;;;24.70;23.20;;;16.30;58.30;;;;;;5030244;28;21037;-79
2021/05/14 07:59:38;;;;;;;27.03;25.63;;;16.40;58.40;;;;;;5029441;28;20452;-77
2021/05/14 08:02:04;;;;;;;24.43;23.20;;;16.60;57.30;;;;;;5023739;28;20480;-78
2021/05/14 08:04:31;;;;;;;29.10;27.50;;;16.50;57.00;;;;;;5026618;28;20463;-77
2021/05/14 08:06:57;;;;;;;24.77;23.40;;;16.40;57.40;;;;;;5035499;28;20459;-78
2021/05/14 08:09:24;;;;;;;24.50;23.10;;;16.30;59.70;;;;;;5010262;28;20467;-77
2021/05/14 08:11:51;;;;;;;27.30;25.83;;;16.60;58.40;;;;;;5043163;28;20479;-78
2021/05/14 08:14:19;;;;;;;26.20;24.80;;;16.80;58.30;;;;;;5029598;28;20456;-78
2021/05/14 08:16:45;;;;;;;25.43;24.00;;;17.10;57.10;;;;;;5037455;28;20902;-77
2021/05/14 08:19:12;;;;;;;27.10;25.60;;;17.30;56.30;;;;;;5028527;28;20439;-78
2021/05/14 08:21:40;;;;;;;29.10;27.40;;;17.80;55.20;;;;;;5026163;28;20606;-77
2021/05/14 08:24:08;;;;;;;25.90;24.50;;;18.10;54.70;;;;;;5030436;28;20456;-77
2021/05/14 08:26:34;;;;;;;24.57;23.27;;;18.40;53.30;;;;;;5022342;28;20954;-79
2021/05/14 08:29:01;;;;;;;26.00;24.60;;;18.30;52.50;;;;;;5027158;28;20891;-78
2021/05/14 08:31:28;;;;;;;26.17;24.63;;;17.90;53.50;;;;;;5028231;28;20472;-77
2021/05/14 08:33:55;;;;;;;26.13;24.60;;;17.60;54.50;;;;;;5022860;28;20452;-77
2021/05/14 08:36:22;;;;;;;24.40;23.20;;;17.30;55.50;;;;;;5026857;28;20549;-77
2021/05/14 08:38:49;;;;;;;24.90;23.53;;;17.40;55.10;;;;;;5030538;28;20546;-78
2021/05/14 08:41:15;;;;;;;25.67;24.27;;;17.50;54.50;;;;;;5027086;28;20526;-80
2021/05/14 08:43:42;;;;;;;25.00;23.63;;;17.50;55.60;;;;;;5030169;28;20526;-80
2021/05/14 08:46:13;;;;;;;26.53;25.23;;;17.60;55.80;;;;;;5028159;28;20459;-76
2021/05/14 08:48:41;;;;;;;27.40;25.90;;;17.50;55.80;;;;;;5028339;28;20826;-76
2021/05/14 08:51:09;;;;;;;25.20;23.80;;;17.50;56.10;;;;;;5022020;28;20497;-76
2021/05/14 08:53:36;;;;;;;25.47;23.97;;;17.50;55.80;;;;;;5027970;28;20534;-76
2021/05/14 08:56:03;;;;;;;24.50;23.20;;;17.50;54.80;;;;;;5028408;28;20974;-76
2021/05/14 08:58:29;;;;;;;25.10;23.80;;;17.20;55.50;;;;;;5026357;28;20459;-76
2021/05/14 09:00:56;;;;;;;27.63;25.83;;;16.90;55.60;;;;;;5029136;28;20476;-77
2021/05/14 09:03:22;;;;;;;26.10;24.77;;;16.90;55.60;;;;;;5025264;28;20921;-76
2021/05/14 09:05:50;;;;;;;23.53;22.40;;;17.00;56.10;;;;;;5026259;28;20460;-76
2021/05/14 09:08:26;;;;;;;23.73;22.53;;;17.10;55.20;;;;;;5027046;28;20542;-76
2021/05/14 09:10:52;;;;;;;24.70;23.30;;;17.30;55.60;;;;;;5026519;28;20730;-77
2021/05/14 09:13:19;;;;;;;24.37;23.17;;;17.50;55.20;;;;;;5026644;28;20538;-79
2021/05/14 09:15:46;;;;;;;24.80;23.37;;;17.70;53.30;;;;;;5028216;28;20599;-80
2021/05/14 09:18:15;;;;;;;25.53;24.20;;;17.50;54.00;;;;;;5026397;28;20539;-76
2021/05/14 09:20:45;;;;;;;25.17;23.60;;;17.50;54.00;;;;;;5028827;28;20475;-75
2021/05/14 09:23:30;;;;;;;24.70;23.13;;;17.80;53.80;;;;;;5025790;28;20503;-76
2021/05/14 09:25:58;;;;;;;26.67;25.17;;;17.80;53.80;;;;;;5028169;28;20565;-77
2021/05/14 09:28:27;;;;;;;24.40;23.20;;;17.90;53.50;;;;;;5029827;28;20539;-76
2021/05/14 09:31:15;;;;;;;25.33;24.00;;;17.80;53.90;;;;;;5026817;28;20472;-77
2021/05/14 09:33:43;;;;;;;26.40;24.70;;;17.50;54.90;;;;;;5009080;28;20464;-73
2021/05/14 09:36:11;;;;;;;25.07;23.77;;;17.20;56.10;;;;;;5024808;28;20550;-75
2021/05/14 09:38:46;;;;;;;25.63;24.33;;;17.20;56.50;;;;;;5026133;28;20938;-75
2021/05/14 09:41:36;;;;;;;24.70;23.40;;;17.10;56.40;;;;;;5024815;28;20566;-75
2021/05/14 09:44:08;;;;;;;25.63;24.23;;;16.80;57.40;;;;;;5024550;28;21037;-75
2021/05/14 09:46:37;;;;;;;27.03;25.67;;;16.80;58.30;;;;;;5028749;28;20537;-75
2021/05/14 09:49:11;;;;;;;24.97;23.70;;;16.90;58.00;;;;;;5017973;28;20499;-75
2021/05/14 09:51:49;;;;;;;25.97;24.57;;;16.90;58.20;;;;;;5028594;28;20491;-76
2021/05/14 09:54:21;;;;;;;24.10;22.90;;;17.40;57.30;;;;;;5026949;28;20549;-76
2021/05/14 09:59:56;;;;;;;26.17;24.63;;;18.10;55.40;;;;;;5025231;28;20933;-76
2021/05/14 10:02:24;;;;;;;25.23;23.93;;;18.30;54.50;;;;;;5025843;28;20486;-78
2021/05/14 10:04:52;;;;;;;25.80;24.40;;;18.40;54.40;;;;;;5027287;28;20479;-77
2021/05/14 10:07:20;;;;;;;25.20;23.80;;;18.70;52.90;;;;;;5024825;28;20448;-78
2021/05/14 10:09:51;;;;;;;27.40;25.90;;;18.80;52.40;;;;;;5027944;28;20460;-79
2021/05/14 10:12:18;;;;;;;26.27;24.50;;;18.90;52.30;;;;;;5028513;28;20525;-82
2021/05/14 10:14:45;;;;;;;26.50;25.10;;;18.90;53.20;;;;;;5026377;28;20582;-79
2021/05/14 10:17:12;;;;;;;25.20;23.80;;;19.20;54.40;;;;;;5027522;28;20556;-81
2021/05/14 10:19:40;;;;;;;25.57;24.13;;;19.20;54.70;;;;;;5031416;28;20450;-80
2021/05/14 10:22:07;;;;;;;27.33;24.80;;;18.90;54.80;;;;;;5028608;28;20635;-80
2021/05/14 10:24:41;;;;;;;24.00;22.80;;;18.50;53.90;;;;;;5031026;28;20440;-76
2021/05/14 10:27:19;;;;;;;28.43;25.67;;;18.20;54.70;;;;;;5027619;28;20460;-77
2021/05/14 10:29:48;;;;;;;25.83;24.23;;;18.10;56.40;;;;;;5024119;28;20463;-76
2021/05/14 10:32:15;;;;;;;27.20;24.93;;;18.00;61.20;;;;;;5028231;28;20874;-77
2021/05/14 10:34:42;;;;;;;42.93;29.00;;;17.80;61.20;;;;;;5027084;28;20460;-76
2021/05/14 10:37:08;;;;;;;25.43;23.40;;;17.60;59.20;;;;;;5028326;28;20459;-78
2021/05/14 10:39:38;;;;;;;25.20;23.70;;;17.40;59.00;;;;;;5035091;28;20825;-81
2021/05/14 10:42:07;;;;;;;24.20;22.90;;;16.80;59.40;;;;;;5029994;28;20849;-76
2021/05/14 10:44:53;;;;;;;26.20;24.60;;;16.00;62.40;;;;;;5030442;28;20467;-78
2021/05/14 10:47:47;;;;;;;26.07;24.40;;;15.60;65.40;;;;;;5027558;28;20483;-79
2021/05/14 10:50:38;;;;;;;24.40;23.20;;;15.70;63.90;;;;;;5027425;28;20463;-80
2021/05/14 10:53:44;;;;;;;25.70;24.20;;;15.50;66.00;;;;;;5028428;28;20455;-78
2021/05/14 10:56:33;;;;;;;26.47;24.97;;;15.80;67.30;;;;;;5023574;28;20543;-76
2021/05/14 10:59:10;;;;;;;25.23;23.83;;;16.20;68.60;;;;;;5026870;28;20510;-81
2021/05/14 11:01:40;;;;;;;28.50;25.67;;;16.50;70.20;;;;;;5030147;28;20520;-76
2021/05/14 11:04:45;;;;;;;26.27;24.70;;;16.80;68.50;;;;;;5029006;28;20490;-77
2021/05/14 11:07:33;;;;;;;24.90;23.50;;;16.80;64.60;;;;;;5027412;28;20443;-79
2021/05/14 11:10:27;;;;;;;24.70;23.37;;;15.80;62.70;;;;;;5033429;28;20993;-79
2021/05/14 11:12:54;;;;;;;26.50;24.93;;;15.30;64.30;;;;;;5021565;28;20552;-77
2021/05/14 11:15:35;;;;;;;24.70;23.40;;;15.00;67.50;;;;;;5031955;28;20513;-77
2021/05/14 11:18:26;;;;;;;25.03;23.50;;;15.00;67.60;;;;;;5027850;28;20455;-77
2021/05/14 11:20:56;;;;;;;28.87;26.97;;;15.30;66.50;;;;;;5032371;28;20993;-79
2021/05/14 11:23:39;;;;;;;25.20;23.87;;;15.60;66.20;;;;;;5030108;28;20487;-76
2021/05/14 11:26:07;;;;;;;25.10;23.80;;;16.10;66.60;;;;;;5027451;28;20474;-74
2021/05/14 11:28:39;;;;;;;24.63;23.33;;;16.40;66.40;;;;;;5030868;28;20542;-75
2021/05/14 11:31:05;;;;;;;24.80;23.53;;;16.90;65.90;;;;;;5031757;28;20487;-76
2021/05/14 11:33:32;;;;;;;25.07;23.70;;;17.20;64.40;;;;;;5030619;28;20452;-74
2021/05/14 11:35:59;;;;;;;24.17;22.97;;;17.70;62.90;;;;;;5029143;28;20471;-75
2021/05/14 11:38:25;;;;;;;27.87;25.10;;;18.20;62.50;;;;;;5033698;28;20468;-76
2021/05/14 11:40:53;;;;;;;28.33;25.90;;;18.20;61.70;;;;;;5028986;28;21022;-75
2021/05/14 11:43:19;;;;;;;28.33;26.10;;;18.20;61.80;;;;;;5029884;28;20549;-76
2021/05/14 11:45:47;;;;;;;25.63;23.47;;;18.40;60.80;;;;;;5028942;28;20551;-76
2021/05/14 11:48:15;;;;;;;43.17;27.47;;;18.60;55.10;;;;;;5030556;28;20463;-76
2021/05/14 11:50:47;;;;;;;25.30;24.00;;;18.30;55.90;;;;;;5029996;28;21020;-75
2021/05/14 11:53:15;;;;;;;24.50;23.20;;;18.20;57.10;;;;;;5030628;28;20471;-77
2021/05/14 11:55:43;;;;;;;24.90;23.47;;;18.20;58.60;;;;;;5027278;28;20547;-74
2021/05/14 11:58:10;;;;;;;24.67;23.17;;;18.30;61.00;;;;;;5030380;28;20448;-75
2021/05/14 12:00:38;;;;;;;28.00;26.20;;;18.20;61.30;;;;;;5027542;28;20487;-74
2021/05/14 12:03:06;;;;;;;25.80;24.40;;;18.40;60.10;;;;;;5030520;28;20475;-74
2021/05/14 12:05:33;;;;;;;25.80;24.40;;;18.70;59.00;;;;;;5029787;28;20542;-76
2021/05/14 12:08:11;;;;;;;26.40;23.93;;;18.90;57.50;;;;;;5031554;28;20456;-75
2021/05/14 12:10:46;;;;;;;24.67;23.37;;;19.00;58.20;;;;;;5027337;28;20469;-77
2021/05/14 12:13:13;;;;;;;26.47;25.07;;;19.10;58.40;;;;;;5027870;28;20550;-76
2021/05/14 12:15:40;;;;;;;24.60;23.37;;;19.20;56.80;;;;;;5026325;28;20459;-76
2021/05/14 12:18:06;;;;;;;25.13;23.63;;;19.30;54.10;;;;;;5030352;28;20452;-75
2021/05/14 12:20:37;;;;;;;24.20;22.90;;;19.30;53.20;;;;;;5032714;28;20626;-75
2021/05/14 12:23:06;;;;;;;24.77;23.47;;;18.90;51.50;;;;;;5028076;28;20848;-76
2021/05/14 12:25:48;;;;;;;25.97;24.47;;;18.70;53.40;;;;;;5029249;28;20531;-76
2021/05/14 12:28:33;;;;;;;26.67;24.30;;;18.80;53.90;;;;;;5028507;28;20893;-76
2021/05/14 12:31:00;;;;;;;26.57;24.63;;;18.90;53.80;;;;;;5026199;28;20487;-76
2021/05/14 12:33:26;;;;;;;28.10;26.60;;;19.10;53.30;;;;;;5025676;28;20498;-75
2021/05/14 12:36:01;;;;;;;26.17;24.00;;;19.30;53.60;;;;;;5030317;28;21889;-75
2021/05/14 12:38:39;;;;;;;25.30;23.80;;;19.70;52.60;;;;;;5023878;28;20898;-75
2021/05/14 12:41:23;;;;;;;33.37;26.50;;;19.90;53.00;;;;;;5029771;28;20562;-75
2021/05/14 12:43:50;;;;;;;26.80;24.40;;;19.90;52.70;;;;;;5027968;28;20558;-76